Time;durP1;ratioP1;P1;durP2;ratioP2;P2;SDS_P1;SDS_P2;PMS_P1;PMS_P2;Temp;Humidity;BMP_temperature;BMP_pressure;BME280_temperature;BME280_humidity;BME280_pressure;Samples;Min_cycle;Max_cycle;Signal;HPM_P1;HPM_P2
2022/07/02 20:57:49;;;;;;;7.70;6.82;;;;;;;22.34;46.13;99605.09;5144696;27;20116;-73
2022/07/02 21:00:17;;;;;;;9.55;7.55;;;;;;;22.39;46.19;99612.72;5143456;27;20055;-74
2022/07/02 21:02:45;;;;;;;8.20;6.78;;;;;;;22.34;46.89;99615.03;5143856;27;20058;-73
2022/07/02 21:05:14;;;;;;;5.70;5.10;;;;;;;22.40;46.72;99618.00;5143600;27;20055;-71
2022/07/02 21:07:41;;;;;;;5.30;4.80;;;;;;;22.46;46.74;99615.69;5143488;27;20051;-72
2022/07/02 21:10:09;;;;;;;4.95;4.00;;;;;;;21.97;46.61;99513.44;5143398;27;20051;-73
2022/07/02 21:12:37;;;;;;;5.95;4.30;;;;;;;22.58;46.85;99618.03;5143446;27;20215;-73
2022/07/02 21:15:07;;;;;;;4.10;3.50;;;;;;;22.67;46.78;99617.09;5143342;27;20078;-73
2022/07/02 21:17:35;;;;;;;6.32;4.72;;;;;;;22.69;46.75;99616.94;5143692;28;20032;-73
2022/07/02 21:20:03;;;;;;;7.68;6.88;;;;;;;22.66;46.88;99618.13;5143349;27;20219;-73
2022/07/02 21:22:30;;;;;;;8.48;7.68;;;;;;;22.80;46.67;99618.56;5143303;27;20063;-74
2022/07/02 21:24:58;;;;;;;8.95;8.05;;;;;;;22.82;46.57;99612.00;5143475;27;20055;-73
2022/07/02 21:27:25;;;;;;;7.13;5.88;;;;;;;22.80;46.39;99616.72;5143085;27;20058;-74
2022/07/02 21:29:52;;;;;;;12.77;9.30;;;;;;;22.81;46.44;99615.72;5143438;27;20062;-74
2022/07/02 21:32:21;;;;;;;7.75;6.50;;;;;;;22.77;46.71;99603.50;5143362;27;20055;-73
2022/07/02 21:34:49;;;;;;;5.82;4.60;;;;;;;22.76;46.98;99609.91;5143271;27;20051;-72
2022/07/02 21:37:17;;;;;;;8.07;6.45;;;;;;;22.84;46.86;99603.72;5143076;27;20062;-73
2022/07/02 21:39:44;;;;;;;7.07;5.53;;;;;;;22.86;46.42;99616.09;5143126;27;20354;-73
2022/07/02 21:42:12;;;;;;;12.55;5.97;;;;;;;22.87;46.67;99612.38;5142782;27;20055;-74
2022/07/02 21:44:39;;;;;;;6.72;6.03;;;;;;;22.87;46.44;99611.53;5142876;27;20055;-73
2022/07/02 21:47:07;;;;;;;8.85;7.28;;;;;;;22.86;46.38;99602.56;5142848;28;20050;-73
2022/07/02 21:49:36;;;;;;;7.35;6.22;;;;;;;22.89;46.39;99607.66;5143099;27;20055;-73
2022/07/02 21:52:06;;;;;;;5.80;5.10;;;;;;;22.83;46.64;99607.44;5143058;27;20055;-74
2022/07/02 21:54:33;;;;;;;5.40;4.60;;;;;;;22.76;46.74;99606.38;5142621;27;20130;-73
2022/07/02 21:57:01;;;;;;;5.85;4.10;;;;;;;22.72;46.79;99605.84;5142132;27;20055;-74
2022/07/02 21:59:29;;;;;;;7.05;3.60;;;;;;;22.80;46.70;99605.06;5142435;27;20051;-73
2022/07/02 22:01:58;;;;;;;4.30;3.63;;;;;;;22.75;46.78;99610.94;5142768;27;20062;-73
2022/07/02 22:04:25;;;;;;;4.00;3.60;;;;;;;22.68;46.89;99604.44;5141666;28;20062;-73
2022/07/02 22:06:54;;;;;;;4.57;3.70;;;;;;;22.68;46.50;99596.34;5142452;27;20058;-73
2022/07/02 22:09:22;;;;;;;4.80;3.55;;;;;;;22.64;46.54;99600.38;5128137;28;20334;-74
2022/07/02 22:11:49;;;;;;;7.10;5.15;;;;;;;22.68;46.57;99604.44;5128532;28;20201;-73
2022/07/02 22:14:16;;;;;;;7.90;7.00;;;;;;;22.55;46.73;99607.53;5128566;27;20067;-72
2022/07/02 22:16:44;;;;;;;9.82;7.22;;;;;;;22.60;46.70;99607.94;5128333;27;20059;-74
2022/07/02 22:19:11;;;;;;;5.68;5.03;;;;;;;22.71;46.38;99593.34;5128410;27;20056;-74
2022/07/02 22:21:39;;;;;;;5.65;4.75;;;;;;;22.66;46.52;99593.81;5128307;28;20066;-73
2022/07/02 22:24:09;;;;;;;6.68;5.65;;;;;;;22.67;46.05;99592.78;5128880;28;20066;-73
2022/07/02 22:26:37;;;;;;;6.00;5.32;;;;;;;22.50;46.96;99584.66;5128368;28;20052;-74
2022/07/02 22:29:05;;;;;;;7.60;6.88;;;;;;;22.52;46.82;99579.97;5128416;28;20062;-73
2022/07/02 22:31:32;;;;;;;5.88;5.28;;;;;;;22.55;46.54;99583.25;5128278;27;20062;-73
2022/07/02 22:33:59;;;;;;;5.07;4.57;;;;;;;22.44;46.54;99567.25;5128128;28;20145;-73
2022/07/02 22:36:27;;;;;;;5.50;4.60;;;;;;;22.59;46.81;99573.81;5128181;28;20056;-74
2022/07/02 22:38:55;;;;;;;4.70;4.00;;;;;;;22.38;47.72;99575.94;5128036;28;20339;-73
2022/07/02 22:41:26;;;;;;;5.93;4.05;;;;;;;22.44;47.57;99575.34;5127947;28;20066;-73
2022/07/02 22:43:55;;;;;;;4.07;3.40;;;;;;;22.37;47.73;99564.28;5128297;27;20055;-73
2022/07/02 22:46:23;;;;;;;4.75;3.80;;;;;;;22.36;47.73;99559.88;5127736;27;20056;-73
2022/07/02 22:48:51;;;;;;;7.63;4.00;;;;;;;22.46;47.51;99561.69;5127715;28;20193;-73
2022/07/02 22:51:20;;;;;;;5.05;4.00;;;;;;;22.46;47.62;99558.97;5127921;28;20062;-73
2022/07/02 22:53:47;;;;;;;5.63;5.03;;;;;;;22.44;47.61;99556.44;5128092;27;20063;-73
2022/07/02 22:56:15;;;;;;;7.22;4.25;;;;;;;22.39;47.84;99554.16;5127224;28;20307;-75
2022/07/02 22:58:45;;;;;;;4.68;3.20;;;;;;;22.10;48.46;99540.06;5127507;28;20063;-74
2022/07/02 23:01:12;;;;;;;6.07;5.47;;;;;;;22.30;48.06;99548.84;5127586;28;20059;-73
2022/07/02 23:03:40;;;;;;;7.85;6.75;;;;;;;22.35;48.11;99544.69;5127105;28;20052;-74
2022/07/02 23:06:09;;;;;;;7.78;6.68;;;;;;;22.29;48.39;99544.44;5127564;28;20078;-73
2022/07/02 23:08:37;;;;;;;8.52;7.63;;;;;;;22.17;48.75;99551.09;5127575;28;20051;-73
2022/07/02 23:11:05;;;;;;;9.15;7.70;;;;;;;22.03;49.00;99541.66;5127725;28;20055;-74
2022/07/02 23:13:32;;;;;;;8.88;7.97;;;;;;;21.89;48.98;99516.06;5127344;28;20052;-74
2022/07/02 23:16:01;;;;;;;6.10;4.97;;;;;;;22.00;48.98;99537.44;5127470;28;20055;-73
2022/07/02 23:18:28;;;;;;;6.28;5.05;;;;;;;21.97;49.17;99535.03;5127219;28;20062;-73
2022/07/02 23:20:56;;;;;;;5.22;4.70;;;;;;;22.04;49.04;99519.94;5125918;28;20331;-73
2022/07/02 23:23:23;;;;;;;6.15;4.90;;;;;;;22.05;48.98;99535.13;5127473;28;20047;-73
2022/07/02 23:25:51;;;;;;;5.57;4.78;;;;;;;22.05;48.93;99534.28;5127136;28;20062;-73
2022/07/02 23:28:18;;;;;;;6.95;4.93;;;;;;;22.02;48.91;99531.88;5127120;28;20058;-73
2022/07/02 23:30:46;;;;;;;4.85;4.10;;;;;;;21.79;49.83;99517.94;5127237;28;20055;-74
2022/07/02 23:33:15;;;;;;;8.13;5.20;;;;;;;21.92;49.24;99510.38;5126928;28;20055;-73
2022/07/02 23:35:42;;;;;;;4.68;4.07;;;;;;;21.98;48.99;99506.19;5127217;28;20051;-74
2022/07/02 23:38:09;;;;;;;5.72;4.05;;;;;;;22.03;48.77;99499.34;5127119;28;20055;-73
2022/07/02 23:40:37;;;;;;;4.78;3.90;;;;;;;21.98;48.83;99504.34;5127171;27;20055;-73
2022/07/02 23:43:05;;;;;;;4.53;3.90;;;;;;;21.99;48.85;99513.28;5126657;28;20055;-73
2022/07/02 23:45:32;;;;;;;3.80;3.25;;;;;;;21.93;49.16;99509.38;5127093;28;20052;-73
2022/07/02 23:48:00;;;;;;;4.57;3.90;;;;;;;21.84;49.07;99510.28;5127052;27;20051;-73
2022/07/02 23:50:28;;;;;;;4.32;3.22;;;;;;;21.87;48.85;99504.56;5126912;28;20039;-73
2022/07/02 23:52:56;;;;;;;3.78;3.28;;;;;;;21.76;49.24;99507.47;5126865;28;20215;-73
2022/07/02 23:55:23;;;;;;;6.22;5.53;;;;;;;21.79;49.22;99507.16;5126399;28;20055;-73
2022/07/02 23:57:51;;;;;;;8.23;6.47;;;;;;;21.83;48.95;99505.03;5126786;28;20051;-73
